Time;durP1;ratioP1;P1;durP2;ratioP2;P2;SDS_P1;SDS_P2;PMS_P1;PMS_P2;Temp;Humidity;BMP_temperature;BMP_pressure;BME280_temperature;BME280_humidity;BME280_pressure;Samples;Min_cycle;Max_cycle;Signal;HPM_P1;HPM_P2
2022/07/24 00:01:16;;;;;;;8.65;4.50;;;;;;;;;;5050061;28;20718;-62
2022/07/24 00:03:41;;;;;;;5.97;3.83;;;;;;;;;;5051144;28;20203;-62
2022/07/24 00:06:07;;;;;;;6.55;3.95;;;;;;;;;;5051415;28;20202;-62
2022/07/24 00:08:32;;;;;;;6.68;4.00;;;;;;;;;;5050522;28;20222;-62
2022/07/24 00:10:58;;;;;;;6.15;3.85;;;;;;;;;;5050839;28;20207;-62
2022/07/24 00:13:24;;;;;;;7.13;4.00;;;;;;;;;;5050521;28;20214;-62
2022/07/24 00:15:49;;;;;;;6.50;4.18;;;;;;;;;;5050368;28;20269;-62
2022/07/24 00:18:14;;;;;;;7.10;4.07;;;;;;;;;;5051020;28;20219;-62
2022/07/24 00:20:39;;;;;;;6.72;3.83;;;;;;;;;;5051298;28;20621;-62
2022/07/24 00:23:05;;;;;;;6.50;3.88;;;;;;;;;;5050435;28;20219;-62
2022/07/24 00:25:30;;;;;;;6.95;4.03;;;;;;;;;;5051518;28;20238;-62
2022/07/24 00:27:55;;;;;;;6.25;3.92;;;;;;;;;;5051250;28;20234;-62
2022/07/24 00:30:21;;;;;;;5.43;3.88;;;;;;;;;;5049559;28;20636;-62
2022/07/24 00:32:46;;;;;;;8.05;3.90;;;;;;;;;;5051361;28;20214;-62
2022/07/24 00:35:13;;;;;;;5.18;3.83;;;;;;;;;;5050722;28;20641;-62
2022/07/24 00:37:38;;;;;;;6.47;3.88;;;;;;;;;;5050080;28;20203;-62
2022/07/24 00:40:04;;;;;;;6.75;3.97;;;;;;;;;;5049953;28;20294;-62
2022/07/24 00:42:29;;;;;;;6.93;3.90;;;;;;;;;;5033040;28;20223;-62
2022/07/24 00:44:54;;;;;;;7.50;4.13;;;;;;;;;;5049977;28;20256;-61
2022/07/24 00:47:20;;;;;;;5.85;4.32;;;;;;;;;;5050545;28;20577;-62
2022/07/24 00:49:45;;;;;;;7.70;4.30;;;;;;;;;;5051201;28;20206;-62
2022/07/24 00:52:10;;;;;;;4.93;3.97;;;;;;;;;;5050275;28;20222;-62
2022/07/24 00:54:35;;;;;;;5.35;3.97;;;;;;;;;;5050480;28;20215;-62
2022/07/24 00:57:01;;;;;;;5.57;3.80;;;;;;;;;;5050265;28;20285;-62
2022/07/24 00:59:26;;;;;;;6.82;3.83;;;;;;;;;;5050002;28;20223;-62
2022/07/24 01:01:51;;;;;;;5.05;3.70;;;;;;;;;;5050722;28;20594;-62
2022/07/24 01:04:17;;;;;;;7.15;4.20;;;;;;;;;;5031901;28;20247;-62
2022/07/24 01:06:43;;;;;;;5.88;4.40;;;;;;;;;;5025173;28;20266;-63
2022/07/24 01:09:08;;;;;;;6.18;4.15;;;;;;;;;;5034104;28;20210;-63
2022/07/24 01:11:34;;;;;;;6.93;4.10;;;;;;;;;;5021723;28;20224;-63
2022/07/24 01:13:59;;;;;;;6.05;4.32;;;;;;;;;;5021764;28;20212;-63
2022/07/24 01:16:24;;;;;;;6.47;4.28;;;;;;;;;;5024170;28;20311;-63
2022/07/24 01:18:49;;;;;;;6.82;4.20;;;;;;;;;;5024178;28;20315;-62
2022/07/24 01:21:15;;;;;;;7.22;4.32;;;;;;;;;;5033104;28;20227;-63
2022/07/24 01:23:40;;;;;;;8.10;4.10;;;;;;;;;;5043472;28;20210;-63
2022/07/24 01:26:06;;;;;;;7.07;3.97;;;;;;;;;;5042725;28;20218;-63
2022/07/24 01:28:32;;;;;;;6.85;4.40;;;;;;;;;;5043355;28;20211;-63
2022/07/24 01:30:57;;;;;;;6.88;4.80;;;;;;;;;;5023858;28;20558;-62
2022/07/24 01:33:22;;;;;;;8.10;4.72;;;;;;;;;;5023216;28;20734;-63
2022/07/24 01:35:47;;;;;;;6.57;4.88;;;;;;;;;;5024363;28;20216;-63
2022/07/24 01:38:13;;;;;;;7.38;4.15;;;;;;;;;;5025353;28;20262;-63
2022/07/24 01:40:38;;;;;;;6.97;4.55;;;;;;;;;;5023284;28;20224;-62
2022/07/24 01:43:04;;;;;;;9.75;4.68;;;;;;;;;;5023578;28;20226;-63
2022/07/24 01:45:30;;;;;;;7.57;4.70;;;;;;;;;;5023603;28;20253;-63
2022/07/24 01:47:55;;;;;;;7.90;5.07;;;;;;;;;;5023582;28;20690;-63
2022/07/24 01:50:20;;;;;;;6.07;4.35;;;;;;;;;;5023299;28;20225;-63
2022/07/24 01:52:46;;;;;;;7.70;4.45;;;;;;;;;;5024138;28;20748;-63
2022/07/24 01:55:11;;;;;;;6.65;4.50;;;;;;;;;;5021415;28;20207;-63
2022/07/24 01:57:36;;;;;;;10.98;4.90;;;;;;;;;;5025176;28;20300;-63
2022/07/24 02:00:02;;;;;;;7.55;4.68;;;;;;;;;;5042166;28;20234;-63
2022/07/24 02:02:28;;;;;;;10.85;5.88;;;;;;;;;;5042325;28;20972;-62
2022/07/24 02:04:53;;;;;;;8.30;5.32;;;;;;;;;;5043296;28;20242;-63
2022/07/24 02:07:18;;;;;;;8.40;5.10;;;;;;;;;;5043161;28;20223;-63
2022/07/24 02:09:43;;;;;;;6.20;4.50;;;;;;;;;;5041558;28;20670;-63
2022/07/24 02:12:09;;;;;;;6.57;4.90;;;;;;;;;;5036312;28;20278;-63
2022/07/24 02:14:34;;;;;;;7.82;4.72;;;;;;;;;;5023679;28;20208;-63
2022/07/24 02:16:59;;;;;;;8.77;5.25;;;;;;;;;;5022534;28;20211;-63
2022/07/24 02:19:25;;;;;;;8.20;4.95;;;;;;;;;;5024727;28;20250;-63
2022/07/24 02:21:50;;;;;;;7.10;5.63;;;;;;;;;;5042802;28;20234;-62
2022/07/24 02:24:15;;;;;;;8.93;5.70;;;;;;;;;;5035734;28;20266;-63
2022/07/24 02:26:41;;;;;;;8.68;5.78;;;;;;;;;;5023011;28;20211;-62
2022/07/24 02:29:06;;;;;;;9.20;5.80;;;;;;;;;;5022649;28;20266;-63
2022/07/24 02:31:31;;;;;;;8.55;6.05;;;;;;;;;;5022272;28;20215;-63
2022/07/24 02:33:57;;;;;;;7.45;5.97;;;;;;;;;;5023407;28;20215;-63
2022/07/24 02:36:22;;;;;;;10.38;5.65;;;;;;;;;;5022098;28;20215;-63
2022/07/24 02:38:48;;;;;;;14.45;6.47;;;;;;;;;;5023168;28;20740;-63
2022/07/24 02:41:13;;;;;;;7.60;5.97;;;;;;;;;;5022614;28;20330;-63
2022/07/24 02:43:38;;;;;;;9.80;6.60;;;;;;;;;;5022239;28;20363;-62
2022/07/24 02:46:04;;;;;;;7.60;6.13;;;;;;;;;;5022617;28;20222;-63
2022/07/24 02:48:29;;;;;;;8.80;6.55;;;;;;;;;;5022677;28;20216;-63
2022/07/24 02:50:54;;;;;;;9.68;6.00;;;;;;;;;;5022311;28;20239;-62
2022/07/24 02:53:20;;;;;;;9.15;6.57;;;;;;;;;;5022107;28;20220;-63
2022/07/24 02:55:45;;;;;;;10.85;6.60;;;;;;;;;;5041783;28;20211;-62
2022/07/24 02:58:11;;;;;;;11.05;6.57;;;;;;;;;;5040684;28;20573;-62
2022/07/24 03:00:36;;;;;;;12.07;6.00;;;;;;;;;;5041623;28;20582;-62
2022/07/24 03:03:01;;;;;;;10.27;6.20;;;;;;;;;;5041699;28;20222;-61
2022/07/24 03:05:27;;;;;;;8.63;6.32;;;;;;;;;;5041876;28;20566;-62
2022/07/24 03:07:53;;;;;;;9.25;7.07;;;;;;;;;;5007823;28;20288;-62
2022/07/24 03:10:18;;;;;;;10.48;6.60;;;;;;;;;;5041319;28;20306;-62
2022/07/24 03:12:44;;;;;;;10.05;6.13;;;;;;;;;;5030022;28;20215;-62
2022/07/24 03:15:10;;;;;;;8.65;6.35;;;;;;;;;;5021387;28;20216;-62
2022/07/24 03:17:36;;;;;;;11.45;6.68;;;;;;;;;;5021691;28;20863;-62
2022/07/24 03:20:02;;;;;;;10.48;6.80;;;;;;;;;;5021308;28;20698;-63
2022/07/24 03:22:27;;;;;;;8.65;6.70;;;;;;;;;;5026245;28;20231;-62
2022/07/24 03:24:52;;;;;;;11.30;7.60;;;;;;;;;;5041322;28;20241;-62
2022/07/24 03:27:18;;;;;;;10.05;7.22;;;;;;;;;;5040056;28;20237;-62
2022/07/24 03:29:43;;;;;;;9.75;6.95;;;;;;;;;;5031736;28;20722;-62
2022/07/24 03:32:08;;;;;;;8.75;7.53;;;;;;;;;;5021049;28;20302;-62
2022/07/24 03:34:34;;;;;;;10.10;7.38;;;;;;;;;;5022389;28;20223;-62
2022/07/24 03:36:59;;;;;;;10.43;7.47;;;;;;;;;;5041448;28;20215;-62
2022/07/24 03:39:24;;;;;;;12.18;7.88;;;;;;;;;;5020627;28;20218;-62
2022/07/24 03:41:50;;;;;;;12.75;7.18;;;;;;;;;;5021373;28;20219;-62
2022/07/24 03:44:15;;;;;;;11.05;7.70;;;;;;;;;;5020999;28;20714;-62
2022/07/24 03:46:41;;;;;;;10.60;7.60;;;;;;;;;;5020800;28;20618;-61
2022/07/24 03:49:06;;;;;;;9.07;6.85;;;;;;;;;;5020955;28;20334;-62
2022/07/24 03:51:31;;;;;;;9.30;7.72;;;;;;;;;;5022196;28;20294;-62
2022/07/24 03:53:57;;;;;;;10.02;6.88;;;;;;;;;;5039958;28;20207;-62
2022/07/24 03:56:22;;;;;;;9.27;6.50;;;;;;;;;;5041001;28;20207;-62
2022/07/24 03:58:47;;;;;;;10.77;6.75;;;;;;;;;;5041040;28;20231;-62
2022/07/24 04:01:13;;;;;;;10.23;7.20;;;;;;;;;;5040063;28;20227;-62
2022/07/24 04:03:38;;;;;;;9.95;7.60;;;;;;;;;;5041647;28;20206;-61
2022/07/24 04:06:04;;;;;;;10.90;7.15;;;;;;;;;;5021043;28;20333;-61
2022/07/24 04:08:30;;;;;;;11.10;7.47;;;;;;;;;;5021697;28;20261;-61
2022/07/24 04:10:57;;;;;;;12.15;7.40;;;;;;;;;;5040527;28;20254;-61
2022/07/24 04:13:23;;;;;;;13.30;7.68;;;;;;;;;;5023787;28;20977;-62
2022/07/24 04:15:49;;;;;;;11.90;7.25;;;;;;;;;;5026637;28;20208;-61
2022/07/24 04:18:14;;;;;;;12.60;7.22;;;;;;;;;;5020699;28;20227;-62
2022/07/24 04:20:39;;;;;;;13.20;7.43;;;;;;;;;;5021918;28;20558;-62
2022/07/24 04:23:04;;;;;;;10.98;7.13;;;;;;;;;;5020550;28;20245;-62
2022/07/24 04:25:30;;;;;;;11.77;7.20;;;;;;;;;;5021798;28;20253;-62
2022/07/24 04:27:55;;;;;;;10.20;7.82;;;;;;;;;;5040404;28;20214;-62
2022/07/24 04:30:20;;;;;;;14.25;8.80;;;;;;;;;;5024692;28;20208;-62
2022/07/24 04:32:46;;;;;;;11.63;8.05;;;;;;;;;;5021025;28;20207;-62
2022/07/24 04:35:11;;;;;;;10.18;7.65;;;;;;;;;;5020527;28;20220;-62
2022/07/24 04:37:36;;;;;;;11.13;8.15;;;;;;;;;;5023205;28;20208;-64
2022/07/24 04:40:02;;;;;;;12.68;8.10;;;;;;;;;;5020279;28;20524;-62
2022/07/24 04:42:27;;;;;;;13.25;7.85;;;;;;;;;;5020150;28;20555;-61
2022/07/24 04:44:53;;;;;;;12.05;9.00;;;;;;;;;;5022063;28;20293;-61
2022/07/24 04:47:18;;;;;;;10.40;7.93;;;;;;;;;;5022464;28;20253;-61
2022/07/24 04:49:43;;;;;;;11.30;8.15;;;;;;;;;;5024271;28;20230;-61
2022/07/24 04:52:09;;;;;;;12.80;7.70;;;;;;;;;;5026749;28;20682;-62
2022/07/24 04:54:34;;;;;;;11.40;7.60;;;;;;;;;;5027746;28;20208;-61
2022/07/24 04:56:59;;;;;;;15.32;9.18;;;;;;;;;;5025433;28;20650;-61
2022/07/24 04:59:25;;;;;;;11.98;9.05;;;;;;;;;;5025364;28;20306;-62
2022/07/24 05:01:50;;;;;;;13.63;8.50;;;;;;;;;;5025512;28;20234;-61
2022/07/24 05:04:16;;;;;;;14.57;8.80;;;;;;;;;;5025546;28;20211;-60
2022/07/24 05:06:41;;;;;;;21.00;8.95;;;;;;;;;;5025925;28;20208;-60
2022/07/24 05:09:06;;;;;;;11.32;9.30;;;;;;;;;;5025277;28;20212;-61
2022/07/24 05:11:32;;;;;;;14.18;9.60;;;;;;;;;;5025584;28;20210;-61
2022/07/24 05:13:57;;;;;;;11.73;8.50;;;;;;;;;;5025663;28;20862;-61
2022/07/24 05:16:23;;;;;;;15.90;10.00;;;;;;;;;;5026338;28;20417;-60
2022/07/24 05:18:48;;;;;;;13.52;9.43;;;;;;;;;;5025322;28;21133;-60
2022/07/24 05:21:15;;;;;;;15.75;10.73;;;;;;;;;;5026801;28;20690;-60
2022/07/24 05:23:42;;;;;;;15.77;10.23;;;;;;;;;;5039541;28;20669;-61
2022/07/24 05:26:08;;;;;;;15.82;11.40;;;;;;;;;;5060628;28;20236;-61
2022/07/24 05:28:33;;;;;;;15.82;10.10;;;;;;;;;;5063920;28;20207;-60
2022/07/24 05:30:58;;;;;;;15.68;11.25;;;;;;;;;;5064245;28;20789;-61
2022/07/24 05:33:24;;;;;;;14.43;9.73;;;;;;;;;;5065548;28;20206;-61
2022/07/24 05:35:49;;;;;;;15.55;11.52;;;;;;;;;;5052263;28;20206;-61
2022/07/24 05:38:14;;;;;;;21.15;11.30;;;;;;;;;;5043811;28;20222;-61
2022/07/24 05:40:40;;;;;;;16.70;12.10;;;;;;;;;;5043744;28;20191;-61
2022/07/24 05:43:05;;;;;;;17.17;12.23;;;;;;;;;;5051465;28;20202;-62
2022/07/24 05:45:30;;;;;;;17.80;11.30;;;;;;;;;;5042762;28;20242;-61
2022/07/24 05:47:56;;;;;;;16.60;12.10;;;;;;;;;;5043643;28;20613;-61
2022/07/24 05:50:21;;;;;;;20.90;12.45;;;;;;;;;;5052894;28;20218;-60
2022/07/24 05:52:46;;;;;;;17.58;13.48;;;;;;;;;;5042671;28;20721;-62
2022/07/24 05:55:12;;;;;;;15.65;12.65;;;;;;;;;;5055116;28;20233;-62
2022/07/24 05:57:37;;;;;;;17.23;13.93;;;;;;;;;;5063440;28;20480;-62
2022/07/24 06:00:03;;;;;;;15.32;13.60;;;;;;;;;;5062359;28;20272;-61
2022/07/24 06:02:28;;;;;;;17.38;13.18;;;;;;;;;;5061840;28;20223;-60
2022/07/24 06:04:53;;;;;;;17.27;13.48;;;;;;;;;;5062718;28;20679;-61
2022/07/24 06:07:19;;;;;;;17.17;13.73;;;;;;;;;;5062689;28;20198;-60
2022/07/24 06:09:44;;;;;;;23.55;13.80;;;;;;;;;;5068170;28;20568;-61
2022/07/24 06:12:09;;;;;;;18.00;14.50;;;;;;;;;;5065933;28;20700;-60
2022/07/24 06:14:34;;;;;;;15.75;12.80;;;;;;;;;;5052357;28;20215;-61
2022/07/24 06:17:00;;;;;;;17.25;14.60;;;;;;;;;;5053161;28;20268;-61
2022/07/24 06:19:25;;;;;;;18.13;14.82;;;;;;;;;;5052889;28;20231;-62
2022/07/24 06:21:50;;;;;;;25.75;15.35;;;;;;;;;;5052200;28;20247;-61
2022/07/24 06:24:16;;;;;;;19.63;14.38;;;;;;;;;;5052805;28;20211;-60
2022/07/24 06:26:41;;;;;;;20.88;15.98;;;;;;;;;;5060629;28;20210;-60
2022/07/24 06:29:06;;;;;;;19.55;15.65;;;;;;;;;;5045346;28;20221;-62
2022/07/24 06:31:32;;;;;;;19.92;14.90;;;;;;;;;;5059187;28;20233;-60
2022/07/24 06:33:57;;;;;;;18.35;15.02;;;;;;;;;;5060695;28;20219;-60
2022/07/24 06:36:22;;;;;;;19.92;14.02;;;;;;;;;;5043569;28;20216;-60
2022/07/24 06:38:48;;;;;;;21.33;16.75;;;;;;;;;;5032977;28;20330;-60
2022/07/24 06:41:13;;;;;;;20.95;15.18;;;;;;;;;;5032248;28;20682;-60
2022/07/24 06:43:39;;;;;;;21.77;15.27;;;;;;;;;;5039493;28;20287;-61
2022/07/24 06:46:04;;;;;;;18.13;14.85;;;;;;;;;;5036693;28;20208;-60
2022/07/24 06:48:30;;;;;;;17.92;14.88;;;;;;;;;;5043097;28;20216;-61
2022/07/24 06:50:55;;;;;;;25.15;13.98;;;;;;;;;;5051733;28;20746;-62
2022/07/24 06:53:21;;;;;;;20.55;13.50;;;;;;;;;;5042433;28;20215;-60
2022/07/24 06:55:47;;;;;;;26.33;12.85;;;;;;;;;;5038151;28;20205;-60
2022/07/24 06:58:12;;;;;;;19.67;12.15;;;;;;;;;;5042794;28;20211;-60
2022/07/24 07:00:37;;;;;;;14.93;12.40;;;;;;;;;;5037356;28;20223;-61
2022/07/24 07:03:03;;;;;;;15.27;9.68;;;;;;;;;;5031072;28;20321;-61
2022/07/24 07:05:28;;;;;;;15.00;10.13;;;;;;;;;;5046791;28;20211;-60
2022/07/24 07:07:53;;;;;;;12.98;9.88;;;;;;;;;;5064085;28;20211;-61
2022/07/24 07:10:19;;;;;;;15.45;9.38;;;;;;;;;;5043927;28;20202;-61
2022/07/24 07:12:44;;;;;;;15.38;9.90;;;;;;;;;;5052035;28;20207;-62
2022/07/24 07:15:09;;;;;;;13.77;9.18;;;;;;;;;;5059146;28;20215;-62
2022/07/24 07:17:36;;;;;;;16.45;8.95;;;;;;;;;;5057646;28;20222;-62
2022/07/24 07:20:02;;;;;;;14.80;8.13;;;;;;;;;;5059301;28;20680;-61
2022/07/24 07:22:27;;;;;;;11.90;7.53;;;;;;;;;;5041655;28;20250;-61
2022/07/24 07:24:53;;;;;;;18.70;8.63;;;;;;;;;;5031338;28;20235;-61
2022/07/24 07:27:18;;;;;;;21.15;7.65;;;;;;;;;;5038654;28;20215;-61
2022/07/24 07:29:43;;;;;;;15.20;7.80;;;;;;;;;;5050501;28;20599;-61
2022/07/24 07:32:09;;;;;;;16.50;9.30;;;;;;;;;;5035554;28;20223;-60
2022/07/24 07:34:34;;;;;;;14.10;8.27;;;;;;;;;;5051069;28;20604;-61
2022/07/24 07:37:00;;;;;;;15.57;7.68;;;;;;;;;;5051194;28;20229;-61
2022/07/24 07:39:25;;;;;;;12.95;8.70;;;;;;;;;;5043138;28;20210;-62
2022/07/24 07:41:50;;;;;;;12.18;7.53;;;;;;;;;;5049045;28;20242;-61
2022/07/24 07:44:16;;;;;;;16.17;7.78;;;;;;;;;;5041827;28;20702;-68
2022/07/24 07:46:41;;;;;;;12.32;7.07;;;;;;;;;;5049918;28;20585;-66
2022/07/24 07:49:06;;;;;;;11.02;8.23;;;;;;;;;;5050062;28;20582;-65
2022/07/24 07:51:32;;;;;;;13.85;6.72;;;;;;;;;;5051465;28;20476;-65
2022/07/24 07:53:57;;;;;;;10.30;6.38;;;;;;;;;;5055505;28;20215;-64
2022/07/24 07:56:22;;;;;;;12.35;6.75;;;;;;;;;;5058392;28;20294;-66
2022/07/24 07:58:48;;;;;;;12.20;6.03;;;;;;;;;;5038167;28;20576;-66
2022/07/24 08:01:13;;;;;;;10.60;6.05;;;;;;;;;;5042076;28;20233;-63
2022/07/24 08:03:38;;;;;;;9.38;4.88;;;;;;;;;;5051470;28;20290;-65
2022/07/24 08:06:05;;;;;;;12.32;4.80;;;;;;;;;;5050747;28;20199;-66
2022/07/24 08:08:30;;;;;;;22.38;5.50;;;;;;;;;;5050457;28;20238;-64
2022/07/24 08:10:55;;;;;;;8.70;4.50;;;;;;;;;;5051476;28;20296;-66
2022/07/24 08:13:21;;;;;;;14.48;4.72;;;;;;;;;;5050193;28;20211;-66
2022/07/24 08:15:46;;;;;;;10.18;4.47;;;;;;;;;;5051000;28;20211;-66
2022/07/24 08:18:11;;;;;;;9.23;3.88;;;;;;;;;;5050387;28;20215;-66
2022/07/24 08:20:37;;;;;;;9.15;3.55;;;;;;;;;;5058007;28;20212;-65
2022/07/24 08:23:02;;;;;;;24.63;4.60;;;;;;;;;;5066898;28;20685;-65
2022/07/24 08:25:27;;;;;;;8.52;3.03;;;;;;;;;;5070897;28;20206;-67
2022/07/24 08:27:52;;;;;;;7.35;2.90;;;;;;;;;;5070375;28;20221;-66
2022/07/24 08:30:18;;;;;;;6.07;2.70;;;;;;;;;;5055172;28;20245;-68
2022/07/24 08:32:43;;;;;;;4.57;2.25;;;;;;;;;;5050726;28;20681;-66
2022/07/24 08:35:09;;;;;;;26.80;3.60;;;;;;;;;;5055250;28;20213;-66
2022/07/24 08:37:35;;;;;;;14.63;3.03;;;;;;;;;;5060318;28;20209;-65
2022/07/24 08:40:00;;;;;;;10.00;3.05;;;;;;;;;;5061163;28;20206;-66
2022/07/24 08:42:26;;;;;;;14.07;4.40;;;;;;;;;;5058953;28;20211;-65
2022/07/24 08:44:51;;;;;;;6.72;2.90;;;;;;;;;;5060712;28;20567;-64
2022/07/24 08:47:17;;;;;;;11.02;2.80;;;;;;;;;;5060378;28;20704;-65
2022/07/24 08:49:42;;;;;;;6.57;3.05;;;;;;;;;;5058695;28;20211;-65
2022/07/24 08:52:08;;;;;;;6.53;2.78;;;;;;;;;;5042378;28;20693;-66
2022/07/24 08:54:34;;;;;;;9.98;3.00;;;;;;;;;;5053508;28;20218;-68
2022/07/24 08:56:59;;;;;;;13.13;3.10;;;;;;;;;;5050015;28;20211;-66
2022/07/24 08:59:25;;;;;;;4.70;2.45;;;;;;;;;;5049983;28;20330;-65
2022/07/24 09:01:50;;;;;;;8.38;2.70;;;;;;;;;;5050451;28;20588;-66
2022/07/24 09:04:31;;;;;;;4.55;2.50;;;;;;;;;;5049086;28;20231;-67
2022/07/24 09:06:57;;;;;;;9.63;2.30;;;;;;;;;;5051956;28;20218;-66
2022/07/24 09:09:22;;;;;;;3.90;2.20;;;;;;;;;;5061422;28;20728;-65
2022/07/24 09:11:47;;;;;;;4.22;2.40;;;;;;;;;;5069531;28;20207;-68
2022/07/24 09:14:31;;;;;;;5.05;2.50;;;;;;;;;;5069257;28;20217;-62
2022/07/24 09:17:03;;;;;;;4.13;2.25;;;;;;;;;;5049949;28;20207;-63
2022/07/24 09:19:28;;;;;;;8.82;2.35;;;;;;;;;;5050205;28;20203;-62
2022/07/24 09:21:54;;;;;;;5.25;2.30;;;;;;;;;;5050373;28;20273;-62
2022/07/24 09:24:20;;;;;;;9.48;2.50;;;;;;;;;;5048961;28;20207;-63
2022/07/24 09:26:50;;;;;;;6.88;2.20;;;;;;;;;;5050207;28;20207;-63
2022/07/24 09:29:16;;;;;;;8.77;2.63;;;;;;;;;;5049651;28;20238;-62
2022/07/24 09:31:49;;;;;;;6.30;1.98;;;;;;;;;;5042626;28;20208;-62
2022/07/24 09:34:14;;;;;;;11.40;2.25;;;;;;;;;;5030480;28;20221;-63
2022/07/24 09:36:40;;;;;;;4.70;2.10;;;;;;;;;;5020880;28;20212;-63
2022/07/24 09:39:06;;;;;;;4.93;2.03;;;;;;;;;;5001940;28;20212;-64
2022/07/24 09:41:32;;;;;;;7.75;2.22;;;;;;;;;;5032713;28;20222;-63
2022/07/24 09:43:59;;;;;;;4.07;1.75;;;;;;;;;;5029561;28;20245;-62
2022/07/24 09:46:25;;;;;;;4.68;2.03;;;;;;;;;;5028525;28;20211;-63
2022/07/24 09:48:52;;;;;;;5.57;2.38;;;;;;;;;;5047678;28;20210;-64
2022/07/24 09:51:18;;;;;;;7.07;2.50;;;;;;;;;;5044189;28;21030;-63
2022/07/24 09:53:44;;;;;;;13.77;2.50;;;;;;;;;;5045933;28;20215;-62
2022/07/24 09:56:11;;;;;;;5.45;2.20;;;;;;;;;;5042504;28;20200;-62
2022/07/24 09:58:38;;;;;;;16.85;2.67;;;;;;;;;;5039324;28;20261;-63
2022/07/24 10:01:03;;;;;;;6.28;1.98;;;;;;;;;;5038984;28;20300;-62
2022/07/24 10:03:30;;;;;;;5.28;1.92;;;;;;;;;;5026833;28;20330;-62
2022/07/24 10:05:57;;;;;;;5.70;2.10;;;;;;;;;;5027134;28;20223;-62
2022/07/24 10:08:22;;;;;;;13.25;2.53;;;;;;;;;;5043676;28;20268;-63
2022/07/24 10:10:48;;;;;;;7.90;2.10;;;;;;;;;;5046692;28;20309;-62
2022/07/24 10:13:14;;;;;;;4.90;2.28;;;;;;;;;;5045822;28;20204;-64
2022/07/24 10:15:40;;;;;;;4.68;2.00;;;;;;;;;;5035069;28;20212;-63
2022/07/24 10:18:13;;;;;;;8.57;1.90;;;;;;;;;;5044132;28;20317;-64
2022/07/24 10:20:40;;;;;;;7.28;1.90;;;;;;;;;;5038961;28;20219;-62
2022/07/24 10:23:05;;;;;;;4.50;1.85;;;;;;;;;;5038670;28;20216;-63
2022/07/24 10:25:34;;;;;;;4.63;1.70;;;;;;;;;;5041330;28;20211;-62
2022/07/24 10:27:59;;;;;;;2.05;1.73;;;;;;;;;;5027979;28;20249;-63
2022/07/24 10:30:24;;;;;;;3.53;1.70;;;;;;;;;;5013837;28;20757;-63
2022/07/24 10:32:50;;;;;;;9.73;1.90;;;;;;;;;;5029958;28;20679;-63
2022/07/24 10:35:17;;;;;;;4.90;1.90;;;;;;;;;;5025308;28;20718;-63
2022/07/24 10:37:49;;;;;;;10.98;2.25;;;;;;;;;;5009869;28;20239;-63
2022/07/24 10:40:28;;;;;;;6.88;1.85;;;;;;;;;;5044128;28;20214;-63
2022/07/24 10:43:05;;;;;;;4.07;2.00;;;;;;;;;;5010199;28;20229;-63
2022/07/24 10:45:32;;;;;;;6.90;2.00;;;;;;;;;;5018676;28;20223;-64
2022/07/24 10:47:57;;;;;;;4.30;1.70;;;;;;;;;;5030097;28;20338;-64
2022/07/24 10:50:23;;;;;;;2.30;1.77;;;;;;;;;;5028104;28;20311;-64
2022/07/24 10:52:48;;;;;;;4.68;1.92;;;;;;;;;;5026707;28;20204;-63
2022/07/24 10:55:24;;;;;;;3.80;1.92;;;;;;;;;;5027228;28;20302;-64
2022/07/24 10:57:56;;;;;;;3.55;2.08;;;;;;;;;;5027608;28;20207;-63
2022/07/24 11:00:22;;;;;;;4.32;2.20;;;;;;;;;;5045516;28;20227;-64
2022/07/24 11:02:57;;;;;;;4.07;1.75;;;;;;;;;;5044317;28;20218;-63
2022/07/24 11:05:24;;;;;;;3.67;2.15;;;;;;;;;;5038308;28;20218;-64
2022/07/24 11:08:08;;;;;;;3.13;1.98;;;;;;;;;;5038233;28;20788;-63
2022/07/24 11:10:46;;;;;;;4.72;2.10;;;;;;;;;;5039834;28;20655;-63
2022/07/24 11:13:30;;;;;;;5.53;2.20;;;;;;;;;;5045363;28;20214;-65
2022/07/24 11:16:23;;;;;;;8.93;1.90;;;;;;;;;;5031541;28;20211;-64
2022/07/24 11:18:49;;;;;;;4.47;1.98;;;;;;;;;;5025495;28;20694;-64
2022/07/24 11:21:27;;;;;;;8.93;2.03;;;;;;;;;;5025048;28;20562;-64
2022/07/24 11:24:11;;;;;;;6.15;2.20;;;;;;;;;;5025154;28;20605;-63
2022/07/24 11:26:40;;;;;;;3.70;2.05;;;;;;;;;;5021899;28;20294;-65
2022/07/24 11:29:16;;;;;;;3.38;1.80;;;;;;;;;;5013061;28;20200;-64
2022/07/24 11:31:42;;;;;;;3.65;2.10;;;;;;;;;;5016703;28;20217;-64
2022/07/24 11:34:08;;;;;;;2.90;1.95;;;;;;;;;;5022758;28;20207;-64
2022/07/24 11:36:34;;;;;;;4.72;1.90;;;;;;;;;;5008210;28;20212;-63
2022/07/24 11:38:59;;;;;;;2.92;1.92;;;;;;;;;;5006150;28;20200;-64
2022/07/24 11:41:24;;;;;;;2.30;1.73;;;;;;;;;;5014144;28;20228;-64
2022/07/24 11:43:51;;;;;;;3.40;1.90;;;;;;;;;;5026069;28;20584;-65
2022/07/24 11:46:31;;;;;;;2.70;1.90;;;;;;;;;;5023905;28;20223;-65
2022/07/24 11:49:02;;;;;;;3.20;2.08;;;;;;;;;;5029058;28;20210;-65
2022/07/24 11:51:28;;;;;;;3.55;2.10;;;;;;;;;;5029869;28;20285;-65
2022/07/24 11:53:53;;;;;;;5.82;2.10;;;;;;;;;;5030525;28;20251;-64
2022/07/24 11:56:19;;;;;;;3.70;1.95;;;;;;;;;;5031473;28;20216;-64
2022/07/24 11:58:44;;;;;;;11.48;2.55;;;;;;;;;;5029696;28;20216;-64
2022/07/24 12:01:20;;;;;;;5.43;2.08;;;;;;;;;;5030487;28;20231;-64
2022/07/24 12:03:50;;;;;;;9.20;2.20;;;;;;;;;;5031404;28;20203;-64
2022/07/24 12:06:15;;;;;;;4.47;1.90;;;;;;;;;;5029929;28;20566;-65
2022/07/24 12:08:41;;;;;;;9.45;1.98;;;;;;;;;;5031410;28;20215;-64
2022/07/24 12:11:06;;;;;;;3.83;1.73;;;;;;;;;;5031072;28;20215;-64
2022/07/24 12:13:32;;;;;;;4.20;1.98;;;;;;;;;;5030438;28;20248;-63
2022/07/24 12:15:57;;;;;;;5.15;2.10;;;;;;;;;;5031068;28;20212;-64
2022/07/24 12:18:22;;;;;;;3.50;2.08;;;;;;;;;;5030676;28;20212;-64
2022/07/24 12:20:48;;;;;;;3.17;1.88;;;;;;;;;;5028900;28;20204;-64
2022/07/24 12:23:14;;;;;;;2.85;1.90;;;;;;;;;;5031005;28;20212;-65
2022/07/24 12:25:40;;;;;;;5.97;2.10;;;;;;;;;;5031698;28;20203;-63
2022/07/24 12:28:06;;;;;;;4.30;1.92;;;;;;;;;;5030396;28;20218;-63
2022/07/24 12:30:32;;;;;;;7.10;2.20;;;;;;;;;;5030558;28;20216;-63
2022/07/24 12:32:58;;;;;;;5.55;2.42;;;;;;;;;;5031084;28;20219;-64
2022/07/24 12:35:24;;;;;;;4.65;2.28;;;;;;;;;;5029489;28;20616;-66
2022/07/24 12:37:50;;;;;;;6.28;2.13;;;;;;;;;;5030858;28;20208;-65
2022/07/24 12:40:30;;;;;;;6.20;1.95;;;;;;;;;;5030979;28;20247;-64
2022/07/24 12:42:58;;;;;;;5.78;1.80;;;;;;;;;;5010439;28;20240;-64
2022/07/24 12:45:23;;;;;;;4.70;2.10;;;;;;;;;;5010737;28;20856;-63
2022/07/24 12:48:08;;;;;;;2.60;1.90;;;;;;;;;;5012407;28;20207;-63
2022/07/24 12:50:33;;;;;;;4.85;1.90;;;;;;;;;;5030903;28;20207;-64
2022/07/24 12:53:02;;;;;;;6.60;2.30;;;;;;;;;;5029669;28;20210;-64
2022/07/24 12:55:28;;;;;;;3.30;2.15;;;;;;;;;;5029599;28;20207;-65
2022/07/24 12:57:57;;;;;;;21.63;3.30;;;;;;;;;;5030743;28;20268;-63
2022/07/24 13:00:22;;;;;;;3.50;2.10;;;;;;;;;;5029859;28;20295;-64
2022/07/24 13:02:47;;;;;;;7.25;2.08;;;;;;;;;;5030331;28;20276;-63
2022/07/24 13:05:13;;;;;;;2.58;1.90;;;;;;;;;;5030776;28;20246;-64
2022/07/24 13:07:38;;;;;;;5.55;1.80;;;;;;;;;;5029870;28;20212;-64
2022/07/24 13:10:03;;;;;;;8.82;1.85;;;;;;;;;;5029864;28;20210;-65
2022/07/24 13:12:29;;;;;;;6.18;1.95;;;;;;;;;;5034473;28;20294;-64
2022/07/24 13:14:54;;;;;;;5.45;2.00;;;;;;;;;;5034508;28;20204;-64
2022/07/24 13:17:20;;;;;;;9.15;2.20;;;;;;;;;;5052664;28;20265;-64
2022/07/24 13:19:47;;;;;;;7.93;2.10;;;;;;;;;;5054629;28;20282;-63
2022/07/24 13:22:12;;;;;;;8.55;2.65;;;;;;;;;;5052920;28;20222;-64
2022/07/24 13:24:37;;;;;;;3.15;1.83;;;;;;;;;;5053339;28;20203;-63
2022/07/24 13:27:03;;;;;;;5.13;2.10;;;;;;;;;;5054063;28;20681;-64
2022/07/24 13:29:29;;;;;;;2.80;2.00;;;;;;;;;;5054099;28;20218;-64
2022/07/24 13:31:54;;;;;;;4.47;2.10;;;;;;;;;;5053595;28;20578;-64
2022/07/24 13:34:19;;;;;;;3.78;1.90;;;;;;;;;;5053967;28;20665;-64
2022/07/24 13:36:46;;;;;;;4.32;2.10;;;;;;;;;;5054189;28;20257;-63
2022/07/24 13:39:11;;;;;;;2.33;1.90;;;;;;;;;;5052592;28;20269;-64
2022/07/24 13:41:37;;;;;;;2.97;2.00;;;;;;;;;;5053737;28;20215;-63
2022/07/24 13:44:02;;;;;;;4.32;1.90;;;;;;;;;;5052659;28;20570;-64
2022/07/24 13:46:28;;;;;;;11.68;2.50;;;;;;;;;;5053489;28;20582;-63
2022/07/24 13:48:54;;;;;;;3.83;2.25;;;;;;;;;;5035354;28;20617;-63
2022/07/24 13:51:19;;;;;;;4.45;1.95;;;;;;;;;;5052275;28;20328;-68
2022/07/24 13:53:44;;;;;;;4.45;2.75;;;;;;;;;;5053351;28;20246;-68
2022/07/24 13:56:10;;;;;;;5.43;1.80;;;;;;;;;;5052736;28;20210;-69
2022/07/24 13:58:37;;;;;;;5.20;2.50;;;;;;;;;;5033450;28;20638;-69
2022/07/24 14:01:03;;;;;;;3.20;2.03;;;;;;;;;;5052000;28;20215;-69
2022/07/24 14:03:28;;;;;;;3.05;2.05;;;;;;;;;;5035468;28;20214;-73
2022/07/24 14:05:54;;;;;;;9.45;2.50;;;;;;;;;;5052453;28;20215;-70
2022/07/24 14:08:19;;;;;;;4.13;1.80;;;;;;;;;;5052535;28;20211;-69
2022/07/24 14:10:44;;;;;;;5.68;1.98;;;;;;;;;;5052570;28;20622;-69
2022/07/24 14:13:10;;;;;;;3.42;1.75;;;;;;;;;;5051673;28;20621;-70
2022/07/24 14:15:36;;;;;;;7.18;2.10;;;;;;;;;;5034752;28;20272;-68
2022/07/24 14:18:01;;;;;;;7.05;1.70;;;;;;;;;;5052670;28;20670;-68
2022/07/24 14:20:26;;;;;;;7.13;2.05;;;;;;;;;;5052308;28;20214;-70
2022/07/24 14:22:52;;;;;;;4.95;2.05;;;;;;;;;;5052039;28;20215;-70
2022/07/24 14:25:17;;;;;;;3.38;1.80;;;;;;;;;;5051863;28;20215;-70
2022/07/24 14:27:42;;;;;;;3.83;1.80;;;;;;;;;;5051738;28;20207;-69
2022/07/24 14:30:08;;;;;;;5.65;2.00;;;;;;;;;;5051824;28;20203;-68